Time;durP1;ratioP1;P1;durP2;ratioP2;P2;SDS_P1;SDS_P2;PMS_P1;PMS_P2;Temp;Humidity;BMP_temperature;BMP_pressure;BME280_temperature;BME280_humidity;BME280_pressure;Samples;Min_cycle;Max_cycle;Signal;HPM_P1;HPM_P2
2022/05/16 00:01:37;;;;;;;3.50;2.00;;;;;;;;;;6239435;23;20984;-53
2022/05/16 00:04:07;;;;;;;3.10;2.20;;;;;;;;;;6224722;22;20197;-53
2022/05/16 00:06:34;;;;;;;3.00;1.90;;;;;;;;;;6234713;22;20456;-53
2022/05/16 00:09:00;;;;;;;4.20;2.30;;;;;;;;;;6220956;23;20385;-54
2022/05/16 00:11:26;;;;;;;2.23;2.03;;;;;;;;;;6237426;23;20374;-53
2022/05/16 00:13:52;;;;;;;3.73;2.50;;;;;;;;;;6222956;23;20474;-53
2022/05/16 00:16:18;;;;;;;3.03;2.20;;;;;;;;;;6236207;23;20402;-54
2022/05/16 00:18:44;;;;;;;2.53;2.10;;;;;;;;;;6213920;23;20362;-54
2022/05/16 00:21:10;;;;;;;2.37;2.10;;;;;;;;;;6237551;23;20229;-54
2022/05/16 00:23:39;;;;;;;3.13;2.17;;;;;;;;;;6222907;23;20374;-54
2022/05/16 00:26:05;;;;;;;5.53;2.93;;;;;;;;;;6236102;23;20877;-54
2022/05/16 00:28:31;;;;;;;3.00;2.30;;;;;;;;;;6219626;23;20381;-54
2022/05/16 00:30:58;;;;;;;2.37;1.87;;;;;;;;;;6234413;23;20532;-54
2022/05/16 00:33:24;;;;;;;2.57;1.87;;;;;;;;;;6240449;23;20518;-54
2022/05/16 00:35:50;;;;;;;3.40;1.97;;;;;;;;;;6223974;23;20367;-54
2022/05/16 00:38:15;;;;;;;2.53;2.30;;;;;;;;;;6238637;23;20144;-55
2022/05/16 00:40:42;;;;;;;2.73;1.90;;;;;;;;;;6224334;23;20183;-54
2022/05/16 00:43:09;;;;;;;2.87;2.33;;;;;;;;;;6234337;22;21071;-54
2022/05/16 00:45:35;;;;;;;3.53;2.10;;;;;;;;;;6226763;23;20402;-55
2022/05/16 00:48:02;;;;;;;2.10;1.90;;;;;;;;;;6232242;23;20362;-54
2022/05/16 00:50:38;;;;;;;2.57;2.20;;;;;;;;;;6195544;23;20473;-55
2022/05/16 00:53:10;;;;;;;2.23;2.00;;;;;;;;;;6223926;22;20411;-55
2022/05/16 00:55:37;;;;;;;4.60;2.63;;;;;;;;;;6235380;23;20370;-53
2022/05/16 00:58:11;;;;;;;3.40;2.37;;;;;;;;;;6215820;22;20842;-53
2022/05/16 01:00:38;;;;;;;5.07;2.30;;;;;;;;;;6238613;23;20424;-55
2022/05/16 01:05:49;;;;;;;3.30;2.30;;;;;;;;;;6234796;23;20401;-54
2022/05/16 01:08:17;;;;;;;4.13;2.40;;;;;;;;;;6217313;23;20464;-54
2022/05/16 01:10:43;;;;;;;3.00;2.70;;;;;;;;;;6236102;22;20377;-54
2022/05/16 01:13:10;;;;;;;5.23;2.10;;;;;;;;;;6218857;23;20540;-54
2022/05/16 01:15:36;;;;;;;2.77;2.10;;;;;;;;;;6238407;23;20540;-54
2022/05/16 01:18:02;;;;;;;4.90;2.30;;;;;;;;;;6216901;23;20434;-53
2022/05/16 01:20:48;;;;;;;4.03;2.40;;;;;;;;;;6239119;23;20528;-53
2022/05/16 01:23:15;;;;;;;3.13;2.30;;;;;;;;;;6208719;23;20605;-54
2022/05/16 01:25:41;;;;;;;2.33;2.13;;;;;;;;;;6237744;23;20375;-54
2022/05/16 01:28:07;;;;;;;6.47;2.50;;;;;;;;;;6219663;23;20409;-54
2022/05/16 01:30:46;;;;;;;6.70;2.03;;;;;;;;;;6243275;23;20384;-54
2022/05/16 01:33:12;;;;;;;3.30;2.13;;;;;;;;;;6223686;22;20381;-53
2022/05/16 01:35:38;;;;;;;2.47;2.27;;;;;;;;;;6243679;23;20374;-53
2022/05/16 01:38:21;;;;;;;2.33;2.03;;;;;;;;;;6219272;23;20567;-53
2022/05/16 01:40:57;;;;;;;3.63;2.20;;;;;;;;;;6229167;22;20233;-54
2022/05/16 01:43:25;;;;;;;4.17;2.17;;;;;;;;;;6239163;23;20385;-54
2022/05/16 01:45:54;;;;;;;3.60;2.00;;;;;;;;;;6229644;23;20447;-53
2022/05/16 01:48:49;;;;;;;3.00;2.40;;;;;;;;;;6235596;22;20390;-53
2022/05/16 01:51:15;;;;;;;2.40;1.93;;;;;;;;;;6240618;23;20425;-53
2022/05/16 01:53:56;;;;;;;3.33;2.20;;;;;;;;;;6233952;23;20500;-53
2022/05/16 01:56:26;;;;;;;4.57;2.20;;;;;;;;;;6238135;22;20377;-54
2022/05/16 01:58:52;;;;;;;2.47;2.10;;;;;;;;;;6228795;23;20409;-53
2022/05/16 02:01:18;;;;;;;4.33;2.10;;;;;;;;;;6245784;23;20947;-53
2022/05/16 02:03:45;;;;;;;4.27;2.17;;;;;;;;;;6233259;23;20382;-54
2022/05/16 02:06:11;;;;;;;3.90;2.17;;;;;;;;;;6234873;23;20819;-54
2022/05/16 02:08:38;;;;;;;2.77;2.47;;;;;;;;;;6221867;23;20985;-53
2022/05/16 02:11:04;;;;;;;6.33;3.00;;;;;;;;;;6228567;23;20386;-54
2022/05/16 02:13:30;;;;;;;3.90;2.30;;;;;;;;;;6228037;23;20410;-53
2022/05/16 02:15:58;;;;;;;3.57;2.57;;;;;;;;;;6225894;22;20469;-54
2022/05/16 02:18:54;;;;;;;2.30;2.10;;;;;;;;;;6231576;22;20424;-52
2022/05/16 02:26:55;;;;;;;3.50;2.10;;;;;;;;;;6232984;23;20599;-53
2022/05/16 02:29:21;;;;;;;4.93;3.03;;;;;;;;;;6218973;23;20362;-54
2022/05/16 02:31:47;;;;;;;2.80;1.93;;;;;;;;;;6236011;23;20892;-55
2022/05/16 02:34:13;;;;;;;6.83;2.93;;;;;;;;;;6231442;23;20366;-54
2022/05/16 02:36:39;;;;;;;5.70;2.20;;;;;;;;;;6238297;22;20354;-53
2022/05/16 02:39:05;;;;;;;3.00;2.23;;;;;;;;;;6215630;23;20453;-54
2022/05/16 02:41:33;;;;;;;2.50;2.30;;;;;;;;;;6235378;23;21105;-53
2022/05/16 02:43:59;;;;;;;4.00;2.07;;;;;;;;;;6219842;23;20522;-54
2022/05/16 02:46:25;;;;;;;3.43;2.20;;;;;;;;;;6233164;23;20497;-56
2022/05/16 02:48:51;;;;;;;6.10;2.20;;;;;;;;;;6213957;23;20837;-55
2022/05/16 02:51:17;;;;;;;3.33;1.90;;;;;;;;;;6240518;23;20485;-54
2022/05/16 02:53:43;;;;;;;2.93;2.63;;;;;;;;;;6221179;23;20393;-54
2022/05/16 02:56:09;;;;;;;3.20;2.20;;;;;;;;;;6239189;23;20362;-53
2022/05/16 02:58:58;;;;;;;2.33;1.80;;;;;;;;;;6234716;23;20362;-52
2022/05/16 03:01:24;;;;;;;2.90;1.90;;;;;;;;;;6222056;22;20203;-55
2022/05/16 03:03:50;;;;;;;2.43;2.13;;;;;;;;;;6237662;23;20382;-53
2022/05/16 03:06:16;;;;;;;2.50;2.27;;;;;;;;;;6234294;22;20240;-53
2022/05/16 03:08:42;;;;;;;3.60;2.20;;;;;;;;;;6240714;23;20378;-53
2022/05/16 03:11:09;;;;;;;2.73;2.27;;;;;;;;;;6217471;23;20375;-54
2022/05/16 03:13:35;;;;;;;2.97;2.33;;;;;;;;;;6238451;23;20382;-53
2022/05/16 03:16:05;;;;;;;2.17;1.77;;;;;;;;;;6234453;23;20390;-53
2022/05/16 03:18:34;;;;;;;2.47;2.27;;;;;;;;;;6237877;23;20400;-54
2022/05/16 03:21:00;;;;;;;2.70;2.40;;;;;;;;;;6226487;23;20390;-54
2022/05/16 03:23:26;;;;;;;3.30;2.40;;;;;;;;;;6218875;23;21246;-53
2022/05/16 03:25:53;;;;;;;8.37;2.43;;;;;;;;;;6240637;23;20460;-55
2022/05/16 03:28:19;;;;;;;4.13;2.10;;;;;;;;;;6213809;23;20861;-53
2022/05/16 03:30:45;;;;;;;2.60;1.97;;;;;;;;;;6236891;23;20380;-54
2022/05/16 03:33:11;;;;;;;2.67;2.20;;;;;;;;;;6194213;23;20405;-52
2022/05/16 03:35:37;;;;;;;3.07;2.37;;;;;;;;;;6227355;23;20402;-52
2022/05/16 03:38:03;;;;;;;5.10;2.87;;;;;;;;;;6233021;23;20397;-53
2022/05/16 03:40:42;;;;;;;4.77;2.67;;;;;;;;;;6223158;23;20251;-52
2022/05/16 03:43:08;;;;;;;3.03;2.50;;;;;;;;;;6234908;23;20440;-54
2022/05/16 03:45:34;;;;;;;7.10;2.80;;;;;;;;;;6236068;23;20690;-53
2022/05/16 03:47:59;;;;;;;2.80;2.50;;;;;;;;;;6236543;23;20377;-54
2022/05/16 03:50:26;;;;;;;3.13;2.50;;;;;;;;;;6234174;23;20148;-52
2022/05/16 03:52:52;;;;;;;3.03;2.33;;;;;;;;;;6239270;22;20147;-53
2022/05/16 03:55:18;;;;;;;4.23;2.53;;;;;;;;;;6218812;23;20373;-53
2022/05/16 03:57:44;;;;;;;3.50;1.90;;;;;;;;;;6237338;22;20402;-53
2022/05/16 04:00:12;;;;;;;3.30;2.43;;;;;;;;;;6218208;23;20809;-52
2022/05/16 04:02:38;;;;;;;3.27;2.40;;;;;;;;;;6237773;22;20225;-53
2022/05/16 04:05:05;;;;;;;4.40;2.03;;;;;;;;;;6195597;23;20785;-53
2022/05/16 04:07:31;;;;;;;2.30;2.07;;;;;;;;;;6238236;23;20824;-53
2022/05/16 04:09:57;;;;;;;2.50;2.30;;;;;;;;;;6215582;23;20690;-52
2022/05/16 04:12:23;;;;;;;3.27;2.97;;;;;;;;;;6238289;23;20420;-54
2022/05/16 04:14:49;;;;;;;5.03;2.50;;;;;;;;;;6232177;23;20250;-53
2022/05/16 04:17:15;;;;;;;5.93;3.07;;;;;;;;;;6236818;22;20838;-53
2022/05/16 04:19:42;;;;;;;4.80;3.90;;;;;;;;;;6233038;23;20785;-53
2022/05/16 04:22:08;;;;;;;3.67;3.00;;;;;;;;;;6237984;22;20437;-53
2022/05/16 04:24:37;;;;;;;3.80;3.00;;;;;;;;;;6223145;22;20919;-53
2022/05/16 04:27:04;;;;;;;8.40;3.23;;;;;;;;;;6239290;23;20378;-54
2022/05/16 04:29:32;;;;;;;4.73;3.53;;;;;;;;;;6227208;23;20603;-53
2022/05/16 04:31:58;;;;;;;4.80;3.57;;;;;;;;;;6236326;23;20367;-52
2022/05/16 04:34:47;;;;;;;4.00;3.60;;;;;;;;;;6225033;23;20552;-52
2022/05/16 04:37:13;;;;;;;4.80;3.50;;;;;;;;;;6238228;22;20396;-53
2022/05/16 04:39:39;;;;;;;5.90;3.60;;;;;;;;;;6217809;23;20366;-53
2022/05/16 04:44:56;;;;;;;5.60;5.00;;;;;;;;;;6229840;23;20548;-53
2022/05/16 04:47:22;;;;;;;4.20;3.77;;;;;;;;;;6224578;23;20880;-53
2022/05/16 04:49:48;;;;;;;5.60;3.23;;;;;;;;;;6240653;22;20764;-52
2022/05/16 04:52:14;;;;;;;6.13;3.37;;;;;;;;;;6234646;22;20366;-53
2022/05/16 04:54:40;;;;;;;5.60;3.93;;;;;;;;;;6239748;23;20377;-52
2022/05/16 04:57:07;;;;;;;3.90;3.10;;;;;;;;;;6213467;23;20382;-52
2022/05/16 04:59:33;;;;;;;5.50;3.43;;;;;;;;;;6237373;23;20378;-53
2022/05/16 05:01:59;;;;;;;3.90;3.47;;;;;;;;;;6219097;23;20837;-52
2022/05/16 05:04:25;;;;;;;3.87;3.47;;;;;;;;;;6238597;23;20417;-53
2022/05/16 05:06:51;;;;;;;4.27;3.60;;;;;;;;;;6213858;23;20144;-53
2022/05/16 05:09:17;;;;;;;5.50;3.60;;;;;;;;;;6236505;23;20370;-53
2022/05/16 05:14:41;;;;;;;7.57;3.60;;;;;;;;;;6211258;23;20416;-54
2022/05/16 05:17:09;;;;;;;4.37;3.40;;;;;;;;;;6232930;22;20566;-52
2022/05/16 05:19:36;;;;;;;8.27;3.53;;;;;;;;;;6234516;23;20374;-53
2022/05/16 05:22:13;;;;;;;10.90;7.17;;;;;;;;;;6228445;23;20430;-53
2022/05/16 05:24:39;;;;;;;7.47;5.20;;;;;;;;;;6218037;22;20919;-51
2022/05/16 05:27:05;;;;;;;7.97;5.10;;;;;;;;;;6237015;23;20869;-53
2022/05/16 05:29:32;;;;;;;7.00;4.50;;;;;;;;;;6237272;23;20385;-52
2022/05/16 05:31:58;;;;;;;8.47;6.33;;;;;;;;;;6238378;23;20363;-53
2022/05/16 05:34:24;;;;;;;8.73;6.23;;;;;;;;;;6215600;23;20600;-53
2022/05/16 05:37:04;;;;;;;8.03;6.10;;;;;;;;;;6240000;23;20139;-56
2022/05/16 05:39:31;;;;;;;8.83;5.77;;;;;;;;;;6234700;23;20697;-52
2022/05/16 05:41:57;;;;;;;7.70;6.47;;;;;;;;;;6213429;23;20453;-51
2022/05/16 05:44:23;;;;;;;6.30;5.33;;;;;;;;;;6239047;23;20366;-51
2022/05/16 05:46:49;;;;;;;6.30;4.80;;;;;;;;;;6215080;23;20695;-52
2022/05/16 05:49:15;;;;;;;6.10;4.50;;;;;;;;;;6235678;23;20379;-52
2022/05/16 05:51:41;;;;;;;7.70;4.97;;;;;;;;;;6221319;23;20800;-53
2022/05/16 05:54:08;;;;;;;7.00;5.07;;;;;;;;;;6231606;23;20822;-52
2022/05/16 05:57:02;;;;;;;6.13;4.17;;;;;;;;;;6228003;23;20397;-53
2022/05/16 05:59:43;;;;;;;5.50;4.97;;;;;;;;;;6229600;23;20382;-53
2022/05/16 06:02:26;;;;;;;5.10;4.07;;;;;;;;;;6222634;23;20435;-53
2022/05/16 06:04:53;;;;;;;6.70;4.17;;;;;;;;;;6221094;22;20389;-53
2022/05/16 06:07:19;;;;;;;5.50;4.80;;;;;;;;;;6221551;23;20798;-55
2022/05/16 06:10:29;;;;;;;5.07;3.87;;;;;;;;;;6232053;23;20382;-53
2022/05/16 06:12:55;;;;;;;4.73;3.90;;;;;;;;;;6214386;22;20409;-53
2022/05/16 06:15:22;;;;;;;3.83;3.50;;;;;;;;;;6228820;23;20486;-53
2022/05/16 06:17:48;;;;;;;3.97;3.57;;;;;;;;;;6213057;22;20374;-52
2022/05/16 06:20:17;;;;;;;3.70;3.20;;;;;;;;;;6233810;23;20393;-53
2022/05/16 06:22:48;;;;;;;6.10;4.43;;;;;;;;;;6224588;23;20426;-53
2022/05/16 06:25:34;;;;;;;5.00;4.10;;;;;;;;;;6241676;23;20386;-53
2022/05/16 06:28:21;;;;;;;4.43;4.03;;;;;;;;;;6223056;23;20520;-53
2022/05/16 06:30:50;;;;;;;5.47;4.27;;;;;;;;;;6236229;23;20398;-59
2022/05/16 06:33:22;;;;;;;4.00;3.60;;;;;;;;;;6238678;22;20909;-53
2022/05/16 06:35:49;;;;;;;3.57;3.23;;;;;;;;;;6229797;22;21154;-51
2022/05/16 06:38:21;;;;;;;4.33;3.87;;;;;;;;;;6229491;23;20370;-53
2022/05/16 06:40:48;;;;;;;4.90;3.50;;;;;;;;;;6221110;22;20398;-52
2022/05/16 06:43:14;;;;;;;4.50;3.47;;;;;;;;;;6207107;23;20444;-52
2022/05/16 06:45:58;;;;;;;4.20;3.30;;;;;;;;;;6237910;23;20653;-53
2022/05/16 06:48:30;;;;;;;4.90;3.63;;;;;;;;;;6229968;22;20378;-52
2022/05/16 06:51:15;;;;;;;3.63;3.33;;;;;;;;;;6208820;23;20386;-52
2022/05/16 06:53:44;;;;;;;7.33;4.20;;;;;;;;;;6231260;23;20709;-53
2022/05/16 06:56:10;;;;;;;3.80;3.30;;;;;;;;;;6215889;23;20393;-53
2022/05/16 06:58:36;;;;;;;4.10;3.50;;;;;;;;;;6227714;22;21062;-54
2022/05/16 07:01:03;;;;;;;4.93;4.03;;;;;;;;;;6223646;23;20393;-51
2022/05/16 07:03:30;;;;;;;4.40;3.80;;;;;;;;;;6240414;22;20429;-53
2022/05/16 07:05:56;;;;;;;3.90;3.30;;;;;;;;;;6218677;23;20377;-53
2022/05/16 07:08:22;;;;;;;4.77;4.37;;;;;;;;;;6218774;23;20405;-52
2022/05/16 07:10:48;;;;;;;4.10;3.50;;;;;;;;;;6238577;23;20477;-52
2022/05/16 07:13:14;;;;;;;4.23;3.83;;;;;;;;;;6216050;22;20401;-52
2022/05/16 07:15:41;;;;;;;5.50;3.90;;;;;;;;;;6235872;23;20961;-53
2022/05/16 07:18:07;;;;;;;4.90;3.67;;;;;;;;;;6217963;23;20502;-53
2022/05/16 07:20:37;;;;;;;4.20;3.80;;;;;;;;;;6238422;23;20370;-52
2022/05/16 07:23:03;;;;;;;4.97;3.77;;;;;;;;;;6225891;23;20552;-52
2022/05/16 07:25:32;;;;;;;5.20;4.20;;;;;;;;;;6236470;22;20402;-52
2022/05/16 07:27:59;;;;;;;4.50;4.10;;;;;;;;;;6211139;22;20948;-53
2022/05/16 07:30:43;;;;;;;4.40;4.00;;;;;;;;;;6236329;22;20373;-53
2022/05/16 07:33:09;;;;;;;6.10;4.10;;;;;;;;;;6230965;23;20384;-52
2022/05/16 07:35:38;;;;;;;5.37;4.10;;;;;;;;;;6203481;23;20367;-53
2022/05/16 07:38:05;;;;;;;3.97;3.43;;;;;;;;;;6231408;22;20167;-52
2022/05/16 07:40:33;;;;;;;4.37;3.97;;;;;;;;;;6211610;23;20845;-52
2022/05/16 07:42:59;;;;;;;6.47;3.80;;;;;;;;;;6230097;23;20976;-53
2022/05/16 07:45:32;;;;;;;6.40;4.40;;;;;;;;;;6226299;23;20408;-53
2022/05/16 07:48:02;;;;;;;6.90;4.50;;;;;;;;;;6231281;22;20378;-53
2022/05/16 07:50:28;;;;;;;5.70;4.00;;;;;;;;;;6217154;22;20478;-53
2022/05/16 07:52:58;;;;;;;7.77;4.40;;;;;;;;;;6228210;23;20525;-52
2022/05/16 07:55:31;;;;;;;5.83;4.17;;;;;;;;;;6216808;23;20428;-52
2022/05/16 07:58:00;;;;;;;4.90;4.30;;;;;;;;;;6228180;23;20386;-53
2022/05/16 08:00:26;;;;;;;7.57;5.57;;;;;;;;;;6210947;23;20755;-51
2022/05/16 08:02:52;;;;;;;6.00;4.70;;;;;;;;;;6229512;23;20526;-51
2022/05/16 08:05:27;;;;;;;5.97;5.37;;;;;;;;;;6226418;23;20444;-52
2022/05/16 08:10:42;;;;;;;5.83;5.13;;;;;;;;;;6220623;23;20448;-51
2022/05/16 08:13:10;;;;;;;6.30;5.03;;;;;;;;;;6251376;22;20397;-52
2022/05/16 08:15:36;;;;;;;7.60;5.70;;;;;;;;;;6221060;23;20776;-51
2022/05/16 08:18:03;;;;;;;8.20;5.23;;;;;;;;;;6228417;23;20891;-52
2022/05/16 08:20:39;;;;;;;5.60;4.93;;;;;;;;;;6228262;23;20386;-53
2022/05/16 08:23:05;;;;;;;8.97;4.77;;;;;;;;;;6227977;22;20434;-51
2022/05/16 08:25:31;;;;;;;5.97;5.10;;;;;;;;;;6234271;22;20374;-52
2022/05/16 08:27:59;;;;;;;5.53;4.90;;;;;;;;;;6224519;23;20869;-53
2022/05/16 08:30:26;;;;;;;6.37;5.23;;;;;;;;;;6231595;22;20378;-53
2022/05/16 08:32:52;;;;;;;6.70;5.60;;;;;;;;;;6212508;22;20386;-52
2022/05/16 08:35:18;;;;;;;6.73;4.83;;;;;;;;;;6230429;23;20367;-53
2022/05/16 08:40:48;;;;;;;5.03;4.53;;;;;;;;;;6232759;23;20756;-52
2022/05/16 08:43:40;;;;;;;10.07;5.90;;;;;;;;;;6226699;23;20453;-53
2022/05/16 08:46:13;;;;;;;7.33;5.40;;;;;;;;;;6228502;23;20374;-53
2022/05/16 08:48:39;;;;;;;5.67;5.07;;;;;;;;;;6216185;23;20381;-54
2022/05/16 08:51:31;;;;;;;8.87;5.00;;;;;;;;;;6235268;23;20389;-52
2022/05/16 08:53:59;;;;;;;6.73;5.30;;;;;;;;;;6204063;22;20532;-53
2022/05/16 08:56:27;;;;;;;4.67;4.00;;;;;;;;;;6228967;23;21071;-54
2022/05/16 08:58:58;;;;;;;6.20;4.90;;;;;;;;;;6206524;23;21002;-52
2022/05/16 09:01:44;;;;;;;10.93;6.13;;;;;;;;;;6227714;23;20771;-52
2022/05/16 09:04:14;;;;;;;5.43;4.27;;;;;;;;;;6210508;22;20366;-52
2022/05/16 09:06:43;;;;;;;8.90;5.77;;;;;;;;;;6230880;22;20868;-52
2022/05/16 09:09:20;;;;;;;7.93;4.87;;;;;;;;;;6210690;22;20830;-54
2022/05/16 09:12:12;;;;;;;5.57;4.43;;;;;;;;;;6228953;23;20901;-52
2022/05/16 09:14:40;;;;;;;10.13;5.70;;;;;;;;;;6227244;22;20873;-53
2022/05/16 09:17:15;;;;;;;5.87;5.00;;;;;;;;;;6224813;23;20362;-57
2022/05/16 09:19:47;;;;;;;9.00;5.30;;;;;;;;;;6216521;23;20158;-53
2022/05/16 09:22:26;;;;;;;5.67;4.97;;;;;;;;;;6216818;23;20436;-53
2022/05/16 09:24:58;;;;;;;9.03;5.80;;;;;;;;;;6218845;22;20378;-54
2022/05/16 09:30:28;;;;;;;6.03;5.43;;;;;;;;;;6232407;23;20388;-52
2022/05/16 09:32:57;;;;;;;6.00;4.80;;;;;;;;;;6218427;23;20678;-52
2022/05/16 09:35:37;;;;;;;5.23;4.53;;;;;;;;;;6233333;23;21017;-52
2022/05/16 09:38:04;;;;;;;7.27;5.27;;;;;;;;;;6223790;22;20399;-52
2022/05/16 09:40:37;;;;;;;6.20;4.63;;;;;;;;;;6231588;23;21151;-57
2022/05/16 09:43:07;;;;;;;6.20;4.23;;;;;;;;;;6231130;23;20438;-53
2022/05/16 09:45:40;;;;;;;10.00;5.30;;;;;;;;;;6232331;23;20374;-53
2022/05/16 09:48:20;;;;;;;8.63;5.40;;;;;;;;;;6217002;23;20366;-53
2022/05/16 09:50:55;;;;;;;8.90;5.50;;;;;;;;;;6233740;23;20504;-53
2022/05/16 09:53:21;;;;;;;5.63;4.33;;;;;;;;;;6207378;23;20372;-52
2022/05/16 09:55:55;;;;;;;5.17;4.67;;;;;;;;;;6233821;23;20450;-52
2022/05/16 09:58:22;;;;;;;6.00;5.23;;;;;;;;;;6213945;22;20443;-52
2022/05/16 10:00:55;;;;;;;13.83;5.50;;;;;;;;;;6230499;23;20436;-52
2022/05/16 10:03:40;;;;;;;8.00;4.97;;;;;;;;;;6208210;23;20880;-53
2022/05/16 10:06:08;;;;;;;7.17;4.67;;;;;;;;;;6226603;23;20400;-53
2022/05/16 10:08:35;;;;;;;5.77;5.17;;;;;;;;;;6244171;22;20826;-53
2022/05/16 10:11:03;;;;;;;8.80;5.23;;;;;;;;;;6226152;23;20779;-53
2022/05/16 10:13:32;;;;;;;6.77;5.27;;;;;;;;;;6223247;23;20389;-51
2022/05/16 10:15:59;;;;;;;7.13;4.20;;;;;;;;;;6225420;23;20373;-53
2022/05/16 10:18:26;;;;;;;7.00;4.93;;;;;;;;;;6218763;23;20671;-53
2022/05/16 10:21:06;;;;;;;6.43;4.87;;;;;;;;;;6218859;23;20932;-53
2022/05/16 10:23:59;;;;;;;5.83;3.80;;;;;;;;;;6226673;23;20487;-52
2022/05/16 10:26:35;;;;;;;8.63;5.10;;;;;;;;;;6218253;22;20382;-53
2022/05/16 10:29:05;;;;;;;5.50;4.87;;;;;;;;;;6228276;23;20927;-53
2022/05/16 10:34:37;;;;;;;7.03;4.57;;;;;;;;;;6226379;23;20405;-52
2022/05/16 10:37:14;;;;;;;7.83;5.03;;;;;;;;;;6225297;22;20412;-52
2022/05/16 10:39:41;;;;;;;12.57;5.23;;;;;;;;;;6211226;23;20378;-52
2022/05/16 10:42:12;;;;;;;5.03;4.10;;;;;;;;;;6226369;23;20429;-52
2022/05/16 10:44:44;;;;;;;5.30;4.57;;;;;;;;;;6219699;22;20905;-53
2022/05/16 10:47:14;;;;;;;6.23;3.90;;;;;;;;;;6225566;23;20484;-52
2022/05/16 10:49:55;;;;;;;6.20;4.30;;;;;;;;;;6210981;23;20904;-57
2022/05/16 10:52:28;;;;;;;5.93;4.47;;;;;;;;;;6229052;23;20370;-53
2022/05/16 10:55:19;;;;;;;7.47;4.13;;;;;;;;;;6224525;23;20382;-52
2022/05/16 10:58:04;;;;;;;8.67;3.70;;;;;;;;;;6226834;23;20601;-52
2022/05/16 11:00:45;;;;;;;8.10;4.00;;;;;;;;;;6221230;23;20772;-53
2022/05/16 11:03:35;;;;;;;8.43;3.80;;;;;;;;;;6232299;23;20487;-53
2022/05/16 11:06:01;;;;;;;5.33;3.30;;;;;;;;;;6214157;23;20815;-51
2022/05/16 11:08:38;;;;;;;6.07;4.07;;;;;;;;;;6226148;23;20363;-53
2022/05/16 11:11:10;;;;;;;7.70;3.10;;;;;;;;;;6209317;23;20143;-52
2022/05/16 11:13:47;;;;;;;4.83;3.27;;;;;;;;;;6230613;23;21144;-52
2022/05/16 11:16:23;;;;;;;5.20;3.00;;;;;;;;;;6210284;23;20776;-52
2022/05/16 11:18:58;;;;;;;7.50;3.63;;;;;;;;;;6228917;23;20370;-54
2022/05/16 11:21:43;;;;;;;4.77;3.10;;;;;;;;;;6210372;23;20374;-53
2022/05/16 11:24:36;;;;;;;5.70;3.23;;;;;;;;;;6232687;23;20382;-53
2022/05/16 11:27:15;;;;;;;5.30;3.37;;;;;;;;;;6159876;23;20374;-51
2022/05/16 11:29:54;;;;;;;3.20;2.80;;;;;;;;;;6232736;23;20374;-51
2022/05/16 11:32:24;;;;;;;7.10;2.70;;;;;;;;;;6220335;23;20401;-51
2022/05/16 11:34:56;;;;;;;3.13;2.23;;;;;;;;;;6231247;23;20467;-52
2022/05/16 11:37:40;;;;;;;5.93;2.50;;;;;;;;;;6226074;23;20397;-57
2022/05/16 11:40:14;;;;;;;5.40;2.70;;;;;;;;;;6199620;23;20413;-53
2022/05/16 11:42:46;;;;;;;3.40;2.50;;;;;;;;;;6234984;23;20514;-52
2022/05/16 11:45:18;;;;;;;3.80;2.73;;;;;;;;;;6203369;23;20866;-53
2022/05/16 11:47:44;;;;;;;5.83;2.33;;;;;;;;;;6232557;23;20402;-52
2022/05/16 11:50:28;;;;;;;3.53;1.90;;;;;;;;;;6225982;23;20824;-52
2022/05/16 11:53:11;;;;;;;4.70;2.00;;;;;;;;;;6234918;23;21162;-52
2022/05/16 12:01:33;;;;;;;7.27;2.20;;;;;;;;;;6226089;23;20875;-52
2022/05/16 12:04:30;;;;;;;3.30;1.70;;;;;;;;;;6215823;22;20400;-53
2022/05/16 12:07:28;;;;;;;3.40;1.80;;;;;;;;;;6226255;23;20385;-53
2022/05/16 12:10:17;;;;;;;6.80;2.60;;;;;;;;;;6149504;22;20497;-51
2022/05/16 12:12:44;;;;;;;4.30;1.90;;;;;;;;;;6215210;23;20477;-52
2022/05/16 12:15:10;;;;;;;3.53;1.90;;;;;;;;;;6232766;23;20412;-52
2022/05/16 12:17:36;;;;;;;6.03;2.10;;;;;;;;;;6216633;22;20873;-53
2022/05/16 12:20:09;;;;;;;3.10;1.93;;;;;;;;;;6229312;23;20359;-53
2022/05/16 12:22:37;;;;;;;5.20;2.10;;;;;;;;;;6201877;22;20551;-52
2022/05/16 12:25:04;;;;;;;5.27;1.73;;;;;;;;;;6211088;22;21267;-51
2022/05/16 12:27:58;;;;;;;7.90;2.03;;;;;;;;;;6219388;23;20371;-52
2022/05/16 12:30:31;;;;;;;5.73;2.40;;;;;;;;;;6226540;22;20645;-52
2022/05/16 12:33:00;;;;;;;2.80;1.77;;;;;;;;;;6223431;23;20457;-52
2022/05/16 12:35:37;;;;;;;3.83;1.73;;;;;;;;;;6229795;22;20390;-52
2022/05/16 12:38:04;;;;;;;4.30;2.20;;;;;;;;;;6214602;23;20635;-52
2022/05/16 12:40:48;;;;;;;3.80;2.20;;;;;;;;;;6228512;23;20382;-53
2022/05/16 12:43:32;;;;;;;4.97;2.40;;;;;;;;;;6219451;23;20693;-53
2022/05/16 12:46:09;;;;;;;9.40;2.87;;;;;;;;;;6229509;23;20812;-52
2022/05/16 12:48:59;;;;;;;5.20;2.63;;;;;;;;;;6213775;23;20737;-53
2022/05/16 12:51:50;;;;;;;4.03;2.83;;;;;;;;;;6228936;23;20386;-52
2022/05/16 12:54:28;;;;;;;7.60;2.57;;;;;;;;;;6209979;22;20388;-53
2022/05/16 12:57:06;;;;;;;5.23;2.63;;;;;;;;;;6229084;23;20385;-52
2022/05/16 12:59:53;;;;;;;6.90;2.37;;;;;;;;;;6212175;22;20385;-53
2022/05/16 13:02:19;;;;;;;3.63;2.63;;;;;;;;;;6228259;23;20441;-53
2022/05/16 13:04:48;;;;;;;4.93;2.20;;;;;;;;;;6188802;22;20420;-53
2022/05/16 13:07:18;;;;;;;3.57;2.43;;;;;;;;;;6227294;23;20366;-53
2022/05/16 13:09:56;;;;;;;3.57;2.50;;;;;;;;;;6215393;23;20428;-52
2022/05/16 13:12:42;;;;;;;6.20;2.70;;;;;;;;;;6228112;23;20785;-52
2022/05/16 13:15:09;;;;;;;5.10;2.20;;;;;;;;;;6205504;23;20370;-51
2022/05/16 13:17:35;;;;;;;5.23;2.10;;;;;;;;;;6230012;23;20379;-51
2022/05/16 13:20:02;;;;;;;4.57;1.87;;;;;;;;;;6219800;23;20378;-52
2022/05/16 13:22:28;;;;;;;3.70;2.10;;;;;;;;;;6221705;23;20434;-52
2022/05/16 13:24:55;;;;;;;3.57;1.87;;;;;;;;;;6224108;23;20405;-51
2022/05/16 13:30:14;;;;;;;3.57;2.03;;;;;;;;;;6225567;23;20400;-53
2022/05/16 13:32:49;;;;;;;4.87;1.97;;;;;;;;;;6203698;23;20400;-52
2022/05/16 13:35:25;;;;;;;4.80;2.93;;;;;;;;;;6222455;23;20392;-52
2022/05/16 13:37:51;;;;;;;3.80;2.10;;;;;;;;;;6204344;23;20673;-51
2022/05/16 13:40:23;;;;;;;5.10;2.07;;;;;;;;;;6226734;23;20370;-52
2022/05/16 13:42:50;;;;;;;6.33;2.77;;;;;;;;;;6215192;22;20629;-52
2022/05/16 13:45:28;;;;;;;5.73;2.60;;;;;;;;;;6204744;23;20384;-54
2022/05/16 13:48:10;;;;;;;4.50;2.57;;;;;;;;;;6221228;23;20380;-54
2022/05/16 13:51:06;;;;;;;4.63;2.40;;;;;;;;;;6225732;22;20943;-54
2022/05/16 13:53:31;;;;;;;6.20;3.60;;;;;;;;;;6208234;23;20873;-54
2022/05/16 13:55:58;;;;;;;5.70;2.03;;;;;;;;;;6225780;23;20400;-54
2022/05/16 13:58:28;;;;;;;5.37;2.63;;;;;;;;;;6223146;23;20386;-52
2022/05/16 14:01:11;;;;;;;5.50;2.50;;;;;;;;;;6232152;22;20366;-53
2022/05/16 14:03:37;;;;;;;3.13;2.10;;;;;;;;;;6184755;23;20437;-53
2022/05/16 14:06:03;;;;;;;5.87;2.73;;;;;;;;;;6232269;23;20397;-53
2022/05/16 14:08:39;;;;;;;4.70;2.33;;;;;;;;;;6188592;23;21037;-54
2022/05/16 14:11:05;;;;;;;7.10;2.93;;;;;;;;;;6232058;23;20390;-52
2022/05/16 14:13:31;;;;;;;4.27;3.00;;;;;;;;;;6207920;23;20848;-53
2022/05/16 14:16:05;;;;;;;5.77;3.20;;;;;;;;;;6231818;23;20373;-54
2022/05/16 14:18:36;;;;;;;4.30;3.53;;;;;;;;;;6211374;23;20449;-54
2022/05/16 14:21:04;;;;;;;3.37;2.70;;;;;;;;;;6230911;23;20370;-53
2022/05/16 14:23:33;;;;;;;6.17;4.07;;;;;;;;;;6213671;22;20494;-53
2022/05/16 14:26:18;;;;;;;5.57;3.20;;;;;;;;;;6228740;23;20871;-53
2022/05/16 14:28:45;;;;;;;4.40;2.87;;;;;;;;;;6217590;23;20387;-52
2022/05/16 14:31:42;;;;;;;8.13;4.00;;;;;;;;;;6231168;23;20378;-55
2022/05/16 14:34:31;;;;;;;4.57;3.03;;;;;;;;;;6220157;22;20413;-53
2022/05/16 14:37:22;;;;;;;6.23;3.90;;;;;;;;;;6210009;23;20478;-53
2022/05/16 14:40:27;;;;;;;5.87;3.83;;;;;;;;;;6233371;22;20375;-55
2022/05/16 14:43:06;;;;;;;6.77;3.70;;;;;;;;;;6219989;23;20520;-52
2022/05/16 14:48:24;;;;;;;5.13;4.03;;;;;;;;;;6222781;23;20475;-53
2022/05/16 14:50:50;;;;;;;5.87;3.43;;;;;;;;;;6233677;22;20394;-54
2022/05/16 14:53:30;;;;;;;5.10;3.30;;;;;;;;;;6208870;23;20397;-51
2022/05/16 14:56:01;;;;;;;4.93;3.73;;;;;;;;;;6204178;22;20422;-59
2022/05/16 14:58:27;;;;;;;5.43;2.90;;;;;;;;;;6225268;23;20406;-55
2022/05/16 15:04:05;;;;;;;6.23;4.30;;;;;;;;;;6228970;23;20640;-53
2022/05/16 15:06:31;;;;;;;3.67;3.37;;;;;;;;;;6220273;22;21219;-53
2022/05/16 15:08:58;;;;;;;6.13;3.17;;;;;;;;;;6221183;23;20877;-54
2022/05/16 15:11:29;;;;;;;5.17;3.40;;;;;;;;;;6234426;23;20370;-53
2022/05/16 15:14:13;;;;;;;4.80;3.57;;;;;;;;;;6230996;23;20582;-53
2022/05/16 15:16:39;;;;;;;4.40;3.40;;;;;;;;;;6227152;23;20378;-53
2022/05/16 15:19:07;;;;;;;8.43;3.57;;;;;;;;;;6219994;23;20414;-51
2022/05/16 15:21:46;;;;;;;4.90;3.00;;;;;;;;;;6233514;22;20389;-52
2022/05/16 15:24:28;;;;;;;5.50;3.60;;;;;;;;;;6216499;22;20687;-52
2022/05/16 15:27:05;;;;;;;6.07;3.30;;;;;;;;;;6229052;23;20943;-52
2022/05/16 15:29:35;;;;;;;5.20;4.63;;;;;;;;;;6210129;23;20482;-52
2022/05/16 15:32:01;;;;;;;4.40;3.23;;;;;;;;;;6230012;22;20385;-53
2022/05/16 15:34:27;;;;;;;4.57;3.00;;;;;;;;;;6212402;23;21075;-51
2022/05/16 15:36:53;;;;;;;5.53;3.17;;;;;;;;;;6229805;23;20493;-53
2022/05/16 15:39:23;;;;;;;4.50;3.10;;;;;;;;;;6226177;23;20370;-52
2022/05/16 15:41:49;;;;;;;6.00;2.93;;;;;;;;;;6235817;23;20430;-52
2022/05/16 15:44:16;;;;;;;5.20;3.00;;;;;;;;;;6218298;23;20385;-52
2022/05/16 15:46:42;;;;;;;4.40;2.70;;;;;;;;;;6238708;23;20454;-53
2022/05/16 15:49:08;;;;;;;6.20;3.30;;;;;;;;;;6221003;23;20382;-52